Flight Track Log - Related Links

Times and Time Zones

All times are in EDT time to prevent confusion due to time zone crossing. See the CSN359 flight status page for this flight to view local times or setup timezone preferences in your user account.

Time Position Orientation Groundspeed Altitude Reporting Facility
EDT Latitude Longitude Course Direction KTS MPH feet Rate Location/Type
Tue 07:31:00 AM 23.4269 113.1748 287° West  Level Estimated
Tue 07:32:00 AM 23.4613 113.0507 287° West  Level Estimated
Tue 07:33:00 AM 23.4956 112.9266 287° West  Level Estimated
Tue 07:34:00 AM 23.5298 112.8024 287° West  Level Estimated
Tue 07:35:00 AM 23.5639 112.6781 287° West  Level Estimated
Tue 07:36:00 AM 23.5979 112.5538 287° West  Level Estimated
Tue 07:37:00 AM 23.6318 112.4294 287° West  Level Estimated
Tue 07:38:00 AM 23.6657 112.3050 287° West  Level Estimated
Tue 07:39:00 AM 23.6994 112.1804 286° West  Level Estimated
Tue 07:40:00 AM 23.7330 112.0559 286° West  Level Estimated
Tue 07:41:00 AM 23.7665 111.9312 286° West  Level Estimated
Tue 07:42:00 AM 23.7999 111.8065 286° West  Level Estimated
Tue 07:43:00 AM 23.8332 111.6817 286° West  Level Estimated
Tue 07:44:00 AM 23.8664 111.5569 286° West  Level Estimated
Tue 07:45:00 AM 23.8995 111.4320 286° West  Level Estimated
Tue 07:46:00 AM 23.9325 111.3070 286° West  Level Estimated
Tue 07:47:00 AM 23.9655 111.1820 286° West  Level Estimated
Tue 07:48:00 AM 23.9982 111.0569 286° West  Level Estimated
Tue 07:49:00 AM 24.0310 110.9317 286° West  Level Estimated
Tue 07:50:00 AM 24.0636 110.8065 286° West  Level Estimated
Tue 07:51:00 AM 24.0961 110.6812 286° West  Level Estimated
Tue 07:52:00 AM 24.1285 110.5559 286° West  Level Estimated
Tue 07:53:00 AM 24.1607 110.4305 286° West  Level Estimated
Tue 07:54:00 AM 24.1929 110.3050 286° West  Level Estimated
Tue 07:55:00 AM 24.2250 110.1795 286° West  Level Estimated
Tue 07:56:00 AM 24.2570 110.0539 286° West  Level Estimated
Tue 07:57:00 AM 24.2889 109.9282 286° West  Level Estimated
Tue 07:58:00 AM 24.3207 109.8025 286° West  Level Estimated
Tue 07:59:00 AM 24.3524 109.6767 285° West  Level Estimated
Tue 08:00:00 AM 24.3839 109.5508 285° West  Level Estimated
Tue 08:01:00 AM 24.4154 109.4249 285° West  Level Estimated
Tue 08:02:00 AM 24.4468 109.2989 285° West  Level Estimated
Tue 08:03:00 AM 24.4780 109.1729 285° West  Level Estimated
Tue 08:04:00 AM 24.5092 109.0468 285° West  Level Estimated
Tue 08:05:00 AM 24.5402 108.9206 285° West  Level Estimated
Tue 08:06:00 AM 24.5711 108.7944 285° West  Level Estimated
Tue 08:07:00 AM 24.6020 108.6681 285° West  Level Estimated
Tue 08:08:00 AM 24.6327 108.5418 285° West  Level Estimated
Tue 08:09:00 AM 24.6633 108.4154 285° West  Level Estimated
Tue 08:10:00 AM 24.6939 108.2889 285° West  Level Estimated
Tue 08:11:00 AM 24.7243 108.1623 285° West  Level Estimated
Tue 08:12:00 AM 24.7546 108.0357 285° West  Level Estimated
Tue 08:13:00 AM 24.7848 107.9091 285° West  Level Estimated
Tue 08:14:00 AM 24.8149 107.7823 285° West  Level Estimated
Tue 08:15:00 AM 24.8449 107.6556 285° West  Level Estimated
Tue 08:16:00 AM 24.8748 107.5287 285° West  Level Estimated
Tue 08:17:00 AM 24.9046 107.4018 285° West  Level Estimated
Tue 08:18:00 AM 24.9342 107.2748 284° West  Level Estimated
Tue 08:19:00 AM 24.9638 107.1478 284° West  Level Estimated
Tue 08:20:00 AM 24.9932 107.0207 284° West  Level Estimated
Tue 08:21:00 AM 25.0226 106.8936 284° West  Level Estimated
Tue 08:22:00 AM 25.0518 106.7663 284° West  Level Estimated
Tue 08:23:00 AM 25.0809 106.6391 284° West  Level Estimated
Tue 08:24:00 AM 25.1100 106.5117 284° West  Level Estimated
Tue 08:25:00 AM 25.1389 106.3844 284° West  Level Estimated
Tue 08:26:00 AM 25.1677 106.2569 284° West  Level Estimated
Tue 08:27:00 AM 25.1964 106.1294 284° West  Level Estimated
Tue 08:28:00 AM 25.2250 106.0018 284° West  Level Estimated
Tue 08:29:00 AM 25.2534 105.8742 284° West  Level Estimated
Tue 08:30:00 AM 25.2818 105.7465 284° West  Level Estimated
Tue 08:31:00 AM 25.3100 105.6188 284° West  Level Estimated
Tue 08:32:00 AM 25.3382 105.4910 284° West  Level Estimated
Tue 08:33:00 AM 25.3662 105.3631 284° West  Level Estimated
Tue 08:34:00 AM 25.3941 105.2352 284° West  Level Estimated
Tue 08:35:00 AM 25.4219 105.1072 284° West  Level Estimated
Tue 08:36:00 AM 25.4496 104.9791 283° West  Level Estimated
Tue 08:37:00 AM 25.4772 104.8510 283° West  Level Estimated
Tue 08:38:00 AM 25.5047 104.7228 283° West  Level Estimated
Tue 08:39:00 AM 25.5321 104.5946 283° West  Level Estimated
Tue 08:40:00 AM 25.5593 104.4663 283° West  Level Estimated
Tue 08:41:00 AM 25.5865 104.3380 283° West  Level Estimated
Tue 08:42:00 AM 25.6135 104.2096 283° West  Level Estimated
Tue 08:43:00 AM 25.6404 104.0811 283° West  Level Estimated
Tue 08:44:00 AM 25.6672 103.9526 283° West  Level Estimated
Tue 08:45:00 AM 25.6940 103.8240 283° West  Level Estimated
Tue 08:46:00 AM 25.7205 103.6954 283° West  Level Estimated
Tue 08:47:00 AM 25.7470 103.5667 283° West  Level Estimated
Tue 08:48:00 AM 25.7734 103.4380 283° West  Level Estimated
Tue 08:49:00 AM 25.7996 103.3092 283° West  Level Estimated
Tue 08:50:00 AM 25.8257 103.1803 283° West  Level Estimated
Tue 08:51:00 AM 25.8517 103.0514 283° West  Level Estimated
Tue 08:52:00 AM 25.8776 102.9224 283° West  Level Estimated
Tue 08:53:00 AM 25.9034 102.7934 283° West  Level Estimated
Tue 08:54:00 AM 25.9291 102.6643 282° West  Level Estimated
Tue 08:55:00 AM 25.9547 102.5351 282° West  Level Estimated
Tue 08:56:00 AM 25.9801 102.4060 282° West  Level Estimated
Tue 08:57:00 AM 26.0054 102.2767 282° West  Level Estimated
Tue 08:58:00 AM 26.0307 102.1474 282° West  Level Estimated
Tue 08:59:00 AM 26.0558 102.0180 282° West  Level Estimated
Tue 09:00:00 AM 26.0808 101.8886 282° West  Level Estimated
Tue 09:01:00 AM 26.1056 101.7591 282° West  Level Estimated
Tue 09:02:00 AM 26.1304 101.6296 282° West  Level Estimated
Tue 09:03:00 AM 26.1550 101.5000 282° West  Level Estimated
Tue 09:04:00 AM 26.1795 101.3704 282° West  Level Estimated
Tue 09:05:00 AM 26.2040 101.2407 282° West  Level Estimated
Tue 09:06:00 AM 26.2282 101.1109 282° West  Level Estimated
Tue 09:07:00 AM 26.2524 100.9811 282° West  Level Estimated
Tue 09:08:00 AM 26.2765 100.8513 282° West  Level Estimated
Tue 09:09:00 AM 26.3004 100.7214 282° West  Level Estimated
Tue 09:10:00 AM 26.3242 100.5914 282° West  Level Estimated
Tue 09:11:00 AM 26.3479 100.4614 282° West  Level Estimated
Tue 09:12:00 AM 26.3715 100.3313 281° West  Level Estimated
Tue 09:13:00 AM 26.3950 100.2012 281° West  Level Estimated
Tue 09:14:00 AM 26.4184 100.0710 281° West  Level Estimated
Tue 09:15:00 AM 26.4416 99.9408 281° West  Level Estimated
Tue 09:16:00 AM 26.4647 99.8105 281° West  Level Estimated
Tue 09:17:00 AM 26.4877 99.6802 281° West  Level Estimated
Tue 09:18:00 AM 26.5106 99.5498 281° West  Level Estimated
Tue 09:19:00 AM 26.5333 99.4193 281° West  Level Estimated
Tue 09:20:00 AM 26.5560 99.2888 281° West  Level Estimated
Tue 09:21:00 AM 26.5785 99.1583 281° West  Level Estimated
Tue 09:22:00 AM 26.6009 99.0277 281° West  Level Estimated
Tue 09:23:00 AM 26.6232 98.8971 281° West  Level Estimated
Tue 09:24:00 AM 26.6454 98.7664 281° West  Level Estimated
Tue 09:25:00 AM 26.6674 98.6356 281° West  Level Estimated
Tue 09:26:00 AM 26.6893 98.5049 281° West  Level Estimated
Tue 09:27:00 AM 26.7111 98.3740 281° West  Level Estimated
Tue 09:28:00 AM 26.7328 98.2431 281° West  Level Estimated
Tue 09:29:00 AM 26.7544 98.1122 280° West  Level Estimated
Tue 09:30:00 AM 26.7759 97.9812 280° West  Level Estimated
Tue 09:31:00 AM 26.7972 97.8502 280° West  Level Estimated
Tue 09:32:00 AM 26.8184 97.7191 280° West  Level Estimated
Tue 09:33:00 AM 26.8395 97.5879 280° West  Level Estimated
Tue 09:34:00 AM 26.8604 97.4567 280° West  Level Estimated
Tue 09:35:00 AM 26.8813 97.3255 280° West  Level Estimated
Tue 09:36:00 AM 26.9020 97.1942 280° West  Level Estimated
Tue 09:37:00 AM 26.9226 97.0629 280° West  Level Estimated
Tue 09:38:00 AM 26.9431 96.9315 280° West  Level Estimated
Tue 09:39:00 AM 26.9634 96.8001 280° West  Level Estimated
Tue 09:40:00 AM 26.9837 96.6686 280° West  Level Estimated
Tue 09:41:00 AM 27.0038 96.5371 280° West  Level Estimated
Tue 09:42:00 AM 27.0238 96.4055 280° West  Level Estimated
Tue 09:43:00 AM 27.0436 96.2739 280° West  Level Estimated
Tue 09:44:00 AM 27.0634 96.1422 280° West  Level Estimated
Tue 09:45:00 AM 27.0830 96.0105 280° West  Level Estimated
Tue 09:46:00 AM 27.1025 95.8787 279° West  Level Estimated
Tue 09:47:00 AM 27.1219 95.7469 279° West  Level Estimated
Tue 09:48:00 AM 27.1411 95.6151 279° West  Level Estimated
Tue 09:49:00 AM 27.1603 95.4832 279° West  Level Estimated
Tue 09:50:00 AM 27.1793 95.3513 279° West  Level Estimated
Tue 09:51:00 AM 27.1982 95.2193 279° West  Level Estimated
Tue 09:52:00 AM 27.2169 95.0872 279° West  Level Estimated
Tue 09:53:00 AM 27.2356 94.9552 279° West  Level Estimated
Tue 09:54:00 AM 27.2541 94.8231 279° West  Level Estimated
Tue 09:55:00 AM 27.2725 94.6909 279° West  Level Estimated
Tue 09:56:00 AM 27.2907 94.5587 279° West  Level Estimated
Tue 09:57:00 AM 27.3089 94.4265 279° West  Level Estimated
Tue 09:58:00 AM 27.3269 94.2942 279° West  Level Estimated
Tue 09:59:00 AM 27.3448 94.1618 279° West  Level Estimated
Tue 10:00:00 AM 27.3625 94.0294 279° West  Level Estimated
Tue 10:01:00 AM 27.3802 93.8970 279° West  Level Estimated
Tue 10:02:00 AM 27.3977 93.7646 279° West  Level Estimated
Tue 10:03:00 AM 27.4151 93.6321 278° West  Level Estimated
Tue 10:04:00 AM 27.4324 93.4995 278° West  Level Estimated
Tue 10:05:00 AM 27.4495 93.3670 278° West  Level Estimated
Tue 10:06:00 AM 27.4665 93.2343 278° West  Level Estimated
Tue 10:07:00 AM 27.4834 93.1016 278° West  Level Estimated
Tue 10:08:00 AM 27.5002 92.9689 278° West  Level Estimated
Tue 10:09:00 AM 27.5168 92.8362 278° West  Level Estimated
Tue 10:10:00 AM 27.5333 92.7034 278° West  Level Estimated
Tue 10:11:00 AM 27.5497 92.5706 278° West  Level Estimated
Tue 10:12:00 AM 27.5660 92.4377 278° West  Level Estimated
Tue 10:13:00 AM 27.5821 92.3048 278° West  Level Estimated
Tue 10:14:00 AM 27.5981 92.1718 278° West  Level Estimated
Tue 10:15:00 AM 27.6140 92.0389 278° West  Level Estimated
Tue 10:16:00 AM 27.6297 91.9058 278° West  Level Estimated
Tue 10:17:00 AM 27.6454 91.7728 278° West  Level Estimated
Tue 10:18:00 AM 27.6609 91.6397 278° West  Level Estimated
Tue 10:19:00 AM 27.6762 91.5065 277° West  Level Estimated
Tue 10:20:00 AM 27.6915 91.3734 277° West  Level Estimated
Tue 10:21:00 AM 27.7066 91.2402 277° West  Level Estimated
Tue 10:22:00 AM 27.7216 91.1069 277° West  Level Estimated
Tue 10:23:00 AM 27.7364 90.9736 277° West  Level Estimated
Tue 10:24:00 AM 27.7512 90.8403 277° West  Level Estimated
Tue 10:25:00 AM 27.7658 90.7069 277° West  Level Estimated
Tue 10:26:00 AM 27.7803 90.5736 277° West  Level Estimated
Tue 10:27:00 AM 27.7946 90.4401 277° West  Level Estimated
Tue 10:28:00 AM 27.8088 90.3067 277° West  Level Estimated
Tue 10:29:00 AM 27.8229 90.1732 277° West  Level Estimated
Tue 10:30:00 AM 27.8369 90.0396 277° West  Level Estimated
Tue 10:31:00 AM 27.8507 89.9061 277° West  Level Estimated
Tue 10:32:00 AM 27.8644 89.7725 277° West  Level Estimated
Tue 10:33:00 AM 27.8780 89.6388 277° West  Level Estimated
Tue 10:34:00 AM 27.8915 89.5052 277° West  Level Estimated
Tue 10:35:00 AM 27.9048 89.3715 276° West  Level Estimated
Tue 10:36:00 AM 27.9180 89.2377 276° West  Level Estimated
Tue 10:37:00 AM 27.9310 89.1040 276° West  Level Estimated
Tue 10:38:00 AM 27.9440 88.9702 276° West  Level Estimated
Tue 10:39:00 AM 27.9568 88.8363 276° West  Level Estimated
Tue 10:40:00 AM 27.9694 88.7025 276° West  Level Estimated
Tue 10:41:00 AM 27.9820 88.5686 276° West  Level Estimated
Tue 10:42:00 AM 27.9944 88.4347 276° West  Level Estimated
Tue 10:43:00 AM 28.0067 88.3007 276° West  Level Estimated
Tue 10:44:00 AM 28.0189 88.1667 276° West  Level Estimated
Tue 10:45:00 AM 28.0309 88.0327 276° West  Level Estimated
Tue 10:46:00 AM 28.0428 87.8987 276° West  Level Estimated
Tue 10:47:00 AM 28.0546 87.7646 276° West  Level Estimated
Tue 10:48:00 AM 28.0662 87.6305 276° West  Level Estimated
Tue 10:49:00 AM 28.0777 87.4964 276° West  Level Estimated
Tue 10:50:00 AM 28.0891 87.3622 276° West  Level Estimated
Tue 10:51:00 AM 28.1003 87.2281 275° West  Level Estimated
Tue 10:52:00 AM 28.1114 87.0938 275° West  Level Estimated
Tue 10:53:00 AM 28.1224 86.9596 275° West  Level Estimated
Tue 10:54:00 AM 28.1332 86.8253 275° West  Level Estimated
Tue 10:55:00 AM 28.1439 86.6910 275° West  Level Estimated
Tue 10:56:00 AM 28.1545 86.5567 275° West  Level Estimated
Tue 10:57:00 AM 28.1650 86.4223 275° West  Level Estimated
Tue 10:58:00 AM 28.1753 86.2880 275° West  Level Estimated
Tue 10:59:00 AM 28.1855 86.1536 275° West  Level Estimated
Tue 11:00:00 AM 28.1956 86.0191 275° West  Level Estimated
Tue 11:01:00 AM 28.2055 85.8847 275° West  Level Estimated
Tue 11:02:00 AM 28.2153 85.7502 275° West  Level Estimated
Tue 11:03:00 AM 28.2250 85.6157 275° West  Level Estimated
Tue 11:04:00 AM 28.2345 85.4812 275° West  Level Estimated
Tue 11:05:00 AM 28.2439 85.3466 275° West  Level Estimated
Tue 11:06:00 AM 28.2532 85.2121 275° West  Level Estimated
Tue 11:07:00 AM 28.2624 85.0775 274° West  Level Estimated
Tue 11:08:00 AM 28.2714 84.9428 274° West  Level Estimated
Tue 11:09:00 AM 28.2803 84.8082 274° West  Level Estimated
Tue 11:10:00 AM 28.2890 84.6735 274° West  Level Estimated
Tue 11:11:00 AM 28.2976 84.5388 274° West  Level Estimated
Tue 11:12:00 AM 28.3061 84.4041 274° West  Level Estimated
Tue 11:13:00 AM 28.3145 84.2694 274° West  Level Estimated
Tue 11:14:00 AM 28.3227 84.1347 274° West  Level Estimated
Tue 11:15:00 AM 28.3308 83.9999 274° West  Level Estimated
Tue 11:16:00 AM 28.3387 83.8651 274° West  Level Estimated
Tue 11:17:00 AM 28.3465 83.7303 274° West  Level Estimated
Tue 11:18:00 AM 28.3542 83.5955 274° West  Level Estimated
Tue 11:19:00 AM 28.3618 83.4606 274° West  Level Estimated
Tue 11:20:00 AM 28.3692 83.3257 274° West  Level Estimated
Tue 11:21:00 AM 28.3765 83.1908 274° West  Level Estimated
Tue 11:22:00 AM 28.3837 83.0559 273° West  Level Estimated
Tue 11:23:00 AM 28.3907 82.9210 273° West  Level Estimated
Tue 11:24:00 AM 28.3976 82.7861 273° West  Level Estimated
Tue 11:25:00 AM 28.4043 82.6511 273° West  Level Estimated
Tue 11:26:00 AM 28.4110 82.5161 273° West  Level Estimated
Tue 11:27:00 AM 28.4175 82.3811 273° West  Level Estimated
Tue 11:28:00 AM 28.4238 82.2461 273° West  Level Estimated
Tue 11:29:00 AM 28.4300 82.1111 273° West  Level Estimated
Tue 11:30:00 AM 28.4361 81.9761 273° West  Level Estimated
Tue 11:31:00 AM 28.4421 81.8410 273° West  Level Estimated
Tue 11:32:00 AM 28.4479 81.7059 273° West  Level Estimated
Tue 11:33:00 AM 28.4536 81.5708 273° West  Level Estimated
Tue 11:34:00 AM 28.4592 81.4357 273° West  Level Estimated
Tue 11:35:00 AM 28.4646 81.3006 273° West  Level Estimated
Tue 11:36:00 AM 28.4699 81.1655 273° West  Level Estimated
Tue 11:37:00 AM 28.4751 81.0303 273° West  Level Estimated
Tue 11:38:00 AM 28.4801 80.8952 272° West  Level Estimated
Tue 11:39:00 AM 28.4850 80.7600 272° West  Level Estimated
Tue 11:40:00 AM 28.4897 80.6248 272° West  Level Estimated
Tue 11:41:00 AM 28.4944 80.4896 272° West  Level Estimated
Tue 11:42:00 AM 28.4989 80.3544 272° West  Level Estimated
Tue 11:43:00 AM 28.5032 80.2192 272° West  Level Estimated
Tue 11:44:00 AM 28.5074 80.0840 272° West  Level Estimated
Tue 11:45:00 AM 28.5115 79.9487 272° West  Level Estimated
Tue 11:46:00 AM 28.5155 79.8135 272° West  Level Estimated
Tue 11:47:00 AM 28.5193 79.6782 272° West  Level Estimated
Tue 11:48:00 AM 28.5230 79.5430 272° West  Level Estimated
Tue 11:49:00 AM 28.5266 79.4077 272° West  Level Estimated
Tue 11:50:00 AM 28.5300 79.2724 272° West  Level Estimated
Tue 11:51:00 AM 28.5333 79.1371 272° West  Level Estimated
Tue 11:52:00 AM 28.5364 79.0018 272° West  Level Estimated
Tue 11:53:00 AM 28.5394 78.8665 271° West  Level Estimated
Tue 11:54:00 AM 28.5423 78.7312 271° West  Level Estimated
Tue 11:55:00 AM 28.5451 78.5958 271° West  Level Estimated
Tue 11:56:00 AM 28.5477 78.4605 271° West  Level Estimated
Tue 11:57:00 AM 28.5502 78.3252 271° West  Level Estimated
Tue 11:58:00 AM 28.5525 78.1898 271° West  Level Estimated
Tue 11:59:00 AM 28.5547 78.0545 271° West  Level Estimated
Tue 12:00:00 PM 28.5568 77.9191 271° West  Level Estimated
Tue 12:01:00 PM 28.5588 77.7838 271° West  Level Estimated
Tue 12:02:00 PM 28.5606 77.6484 271° West  Level Estimated
Tue 12:03:00 PM 28.5623 77.5130 271° West  Level Estimated
Tue 12:04:00 PM 28.5638 77.3776 271° West  Level Estimated
Tue 12:05:00 PM 28.5652 77.2422 271° West  Level Estimated
Tue 12:06:00 PM 28.5665 77.1069 271° West  Level Estimated
Tue 12:07:00 PM 28.5665 77.1031 271° West  Level Estimated
Tue 12:08:00 PM 28.5665 77.1031 270° West  Level Estimated
Tue 12:09:00 PM 28.5665 77.1031 270° West  Level Estimated
Tue 12:10:00 PM 28.5665 77.1031 270° West  Level Estimated
Tue 12:11:00 PM 28.5665 77.1031 270° West  Level Estimated
Tue 12:12:00 PM 28.5665 77.1031 270° West  Level Estimated
Tue 12:13:00 PM 28.5665 77.1031 270° West  Level Estimated
Tue 12:14:00 PM 28.5665 77.1031 270° West  Level Estimated
Tue 12:15:00 PM 28.5665 77.1031 270° West  Level Estimated
Tue 12:16:00 PM 28.5665 77.1031 270° West  Level Estimated
Tue 12:17:00 PM 28.5665 77.1031 270° West  Level Estimated
Tue 12:18:00 PM 28.5665 77.1031 270° West  Level Estimated
Tue 12:19:00 PM 28.5665 77.1031 270° West  Level Estimated
Tue 12:20:00 PM 28.5665 77.1031 270° West  Level Estimated
Tue 12:21:00 PM 28.5665 77.1031 270° West  Level Estimated
Tue 12:22:00 PM 28.5665 77.1031 270° West  Level Estimated

Login

Don't have an account? Register now (free) for customized features, flight alerts, and more!